Flight Track Log - Related Links

Times and Time Zones

All times are in EST time to prevent confusion due to time zone crossing. See the VP-BLX flight status page for this flight to view local times or setup timezone preferences in your user account.

Time Position Orientation Groundspeed Altitude Reporting Facility
EST Latitude Longitude Course Direction KTS MPH feet Rate Location/Type
Sun 08:10:50 PM 23.2311 -82.0214 29° Northeast 408 470 14,800  Level Miami Center
Sun 08:11:50 PM 23.3100 -81.9769 27° Northeast 361 415 16,600 1,700 Climbing Miami Center
Sun 08:12:00 PM 23.6893 -81.9829 29° Northeast  Level Estimated
Sun 08:12:50 PM 23.3869 -81.9214 34° Northeast 341 392 18,200  Level Miami Center
Sun 08:13:00 PM 23.8033 -81.9130 29° Northeast  Level Estimated
Sun 08:13:50 PM 23.4564 -81.8425 46° Northeast 336 387 19,900  Level Miami Center
Sun 08:14:00 PM 23.9174 -81.8429 29° Northeast  Level Estimated
Sun 08:14:50 PM 23.5258 -81.7639 46° Northeast 347 399 21,200  Level Miami Center
Sun 08:15:00 PM 24.0313 -81.7728 29° Northeast  Level Estimated
Sun 08:15:50 PM 23.5975 -81.6758 48° Northeast 366 421 22,600  Level Miami Center
Sun 08:16:50 PM 23.6756 -81.5883 46° Northeast 382 440 24,000 1,350 Climbing Miami Center
Sun 08:17:50 PM 23.7536 -81.4981 47° Northeast 394 453 25,300 1,050 Climbing Miami Center
Sun 08:18:50 PM 23.8314 -81.4103 46° Northeast 417 480 26,100 950 Climbing Miami Center
Sun 08:19:50 PM 23.9136 -81.3131 47° Northeast 430 495 27,200 1,150 Climbing Miami Center
Sun 08:20:50 PM 23.9756 -81.1972 60° Northeast 440 506 28,400 1,200 Climbing Miami Center
Sun 08:21:50 PM 24.0150 -81.0622 72° East 440 506 29,600 1,050 Climbing Miami Center
Sun 08:22:50 PM 24.0361 -80.9036 82° East 455 524 30,500 850 Climbing Miami Center
Sun 08:23:50 PM 24.0522 -80.7608 83° East 472 543 31,300 800 Climbing Miami Center
Sun 08:24:50 PM 24.0686 -80.6136 83° East 479 551 32,100 650 Climbing Miami Center
Sun 08:25:50 PM 24.0869 -80.4617 82° East 485 558 32,600 650 Climbing Miami Center
Sun 08:26:50 PM 24.1069 -80.3233 81° East 497 572 33,400 700 Climbing Miami Center
Sun 08:27:50 PM 24.1292 -80.1717 81° East 503 579 34,000 750 Climbing Miami Center
Sun 08:28:50 PM 24.2153 -80.0600 50° Northeast 475 547 34,900 500 Climbing Miami Center
Sun 08:29:50 PM 24.3431 -80.0428 North 417 480 35,000 50 Climbing Miami Center
Sun 08:30:50 PM 24.4706 -80.0436 360° North 412 474 35,000  Level Miami Center
Sun 08:31:50 PM 24.5981 -80.0422 North 443 510 35,000  Level Miami Center
Sun 08:32:50 PM 24.7253 -80.0456 359° North 443 510 35,000  Level Miami Center
Sun 08:33:50 PM 24.8553 -80.0306 North 455 524 35,000  Level Miami Center
Sun 08:34:50 PM 24.9833 -79.9994 12° North 461 531 35,000  Level Miami Center
Sun 08:35:50 PM 25.1094 -79.9661 13° North 466 536 35,000  Level Miami Center
Sun 08:36:50 PM 25.2333 -79.9347 13° North 466 536 35,000  Level Miami Center
Sun 08:37:50 PM 25.3633 -79.9036 12° North 466 536 35,000  Level Miami Center
Sun 08:38:50 PM 25.4894 -79.8722 13° North 466 536 35,000  Level Miami Center
Sun 08:39:50 PM 25.6153 -79.8431 12° North 466 536 35,000  Level Miami Center
Sun 08:40:50 PM 25.7456 -79.8117 12° North 466 536 35,000  Level Miami Center
Sun 08:41:50 PM 25.8672 -79.7778 14° North 466 536 35,000  Level Miami Center
Sun 08:47:21 PM 26.5590 -79.4975 14° North 479 551 35,000  Level FlightAware ADS-B
Sun 08:48:18 PM 26.5967 -79.4773 26° Northeast 479 551 35,000  Level FlightAware ADS-B
Sun 08:52:01 PM 27.1245 -79.1930 26° Northeast 481 554 35,000  Level FlightAware ADS-B
Sun 08:52:32 PM 27.1884 -79.1583 26° Northeast 482 555 35,000  Level FlightAware ADS-B
Sun 08:53:03 PM 27.2497 -79.1249 26° Northeast 482 555 35,000  Level FlightAware ADS-B
Sun 08:53:34 PM 27.3114 -79.0912 26° Northeast 484 557 35,000  Level FlightAware ADS-B
Sun 08:54:04 PM 27.3719 -79.0582 26° Northeast 481 554 35,000  Level FlightAware ADS-B
Sun 08:54:29 PM 27.4250 -79.0422 15° North 463 533 35,000  Level FlightAware ADS-B
Sun 08:55:50 PM 27.5831 -79.0100 15° North 462 532 35,000  Level Miami Center
Sun 09:02:01 PM 28.3082 -78.8578 15° North 467 537 35,000  Level FlightAware ADS-B
Sun 09:02:50 PM 28.4708 -78.8286 15° North 467 537 35,000  Level Miami Center
Sun 09:03:50 PM 28.5964 -78.8022 10° North 461 531 35,000  Level Miami Center
Sun 09:04:50 PM 28.7242 -78.7736 11° North 461 531 35,000  Level Miami Center
Sun 09:05:50 PM 28.8539 -78.7475 10° North 461 531 35,000  Level Miami Center
Sun 09:06:50 PM 28.9836 -78.7214 10° North 466 536 35,000  Level Miami Center
Sun 09:07:50 PM 29.1092 -78.6925 11° North 466 536 35,000  Level Miami Center
Sun 09:08:50 PM 29.2386 -78.6686 North 466 536 35,000  Level Miami Center
Sun 09:09:50 PM 29.3600 -78.6372 13° North 460 529 35,000  Level Miami Center
Sun 09:12:17 PM 29.6817 -78.5661 11° North 447 514 35,000  Level Jacksonville Center
Sun 09:13:17 PM 29.8103 -78.5436 North 467 537 35,000  Level Jacksonville Center
Sun 09:14:17 PM 29.9303 -78.5069 15° North 462 532 35,000  Level Jacksonville Center
Sun 09:15:17 PM 30.0567 -78.4822 10° North 458 527 35,000  Level Jacksonville Center
Sun 09:16:17 PM 30.1764 -78.4478 14° North 449 517 35,000 300 Level Jacksonville Center
Sun 09:17:17 PM 30.2931 -78.4353 North 451 519 35,600 700 Climbing Jacksonville Center
Sun 09:18:17 PM 30.4172 -78.4053 12° North 456 525 36,400 650 Climbing Jacksonville Center
Sun 09:19:17 PM 30.5436 -78.3800 10° North 456 525 36,900 300 Climbing Jacksonville Center
Sun 09:20:17 PM 30.6761 -78.3497 11° North 459 528 37,000 50 Climbing Jacksonville Center
Sun 09:21:17 PM 30.7983 -78.3219 11° North 465 535 37,000  Level Jacksonville Center
Sun 09:22:17 PM 30.9225 -78.2942 11° North 465 535 37,000  Level Jacksonville Center
Sun 09:23:17 PM 31.0611 -78.2633 11° North 460 529 37,000  Level Jacksonville Center
Sun 09:24:17 PM 31.1856 -78.2353 11° North 455 524 37,000  Level Jacksonville Center
Sun 09:25:17 PM 31.3097 -78.2119 North 445 512 37,000  Level Jacksonville Center
Sun 09:26:17 PM 31.4339 -78.1814 12° North 445 512 37,000  Level Jacksonville Center
Sun 09:27:17 PM 31.5539 -78.1511 12° North 445 512 37,000  Level Jacksonville Center
Sun 09:28:17 PM 31.6758 -78.1181 13° North 436 502 37,000  Level Jacksonville Center
Sun 09:29:17 PM 31.7961 -78.0972 North 442 509 37,000  Level Jacksonville Center
Sun 09:30:17 PM 31.9183 -78.0711 10° North 442 509 37,000  Level Jacksonville Center
Sun 09:31:17 PM 32.0403 -78.0428 11° North 448 516 37,000  Level Jacksonville Center
Sun 09:32:17 PM 32.1603 -78.0144 11° North 448 516 37,000  Level Jacksonville Center
Sun 09:33:17 PM 32.2803 -77.9883 10° North 443 510 37,000  Level Jacksonville Center
Sun 09:34:17 PM 32.4025 -77.9619 10° North 443 510 37,000  Level Jacksonville Center
Sun 09:35:17 PM 32.5206 -77.9383 10° North 443 510 37,000  Level Jacksonville Center
Sun 09:36:17 PM 32.6381 -77.9072 13° North 438 504 37,000  Level Jacksonville Center
Sun 09:37:17 PM 32.7542 -77.8811 11° North 433 498 37,000  Level Jacksonville Center
Sun 09:38:17 PM 32.8700 -77.8550 11° North 427 491 37,000  Level Jacksonville Center
Sun 09:39:17 PM 32.9856 -77.8236 13° North 427 491 37,000  Level Jacksonville Center
Sun 09:41:48 PM 33.2719 -77.7622 10° North 431 496 37,000  Level Washington Center
Sun 09:42:46 PM 33.3872 -77.7331 12° North 419 482 37,000  Level Washington Center
Sun 09:43:47 PM 33.5064 -77.7061 11° North 419 482 37,000  Level Washington Center
Sun 09:44:47 PM 33.6217 -77.6792 11° North 424 488 37,000  Level Washington Center
Sun 09:45:47 PM 33.7411 -77.6497 12° North 429 494 37,000  Level Washington Center
Sun 09:51:13 PM 34.3803 -77.4955 12° North 435 501 37,000  Level FlightAware ADS-B
Sun 09:51:49 PM 34.4492 -77.4589 24° Northeast 439 505 37,000  Level FlightAware ADS-B
Sun 09:52:20 PM 34.5048 -77.4291 24° Northeast 436 502 37,000  Level FlightAware ADS-B
Sun 09:52:59 PM 34.5781 -77.3898 24° Northeast 435 501 37,000  Level FlightAware ADS-B
Sun 09:53:30 PM 34.6341 -77.3602 23° Northeast 436 502 37,000  Level FlightAware ADS-B
Sun 09:54:00 PM 34.6894 -77.3311 23° Northeast 437 503 37,000  Level FlightAware ADS-B
Sun 09:54:30 PM 34.7478 -77.3002 23° Northeast 435 501 37,000  Level FlightAware ADS-B
Sun 09:55:00 PM 34.8032 -77.2708 24° Northeast 434 499 37,000  Level FlightAware ADS-B
Sun 09:55:30 PM 34.8558 -77.2429 24° Northeast 433 498 37,000  Level FlightAware ADS-B
Sun 09:56:00 PM 34.9124 -77.2128 24° Northeast 436 502 37,000  Level FlightAware ADS-B
Sun 09:56:30 PM 34.9685 -77.1830 24° Northeast 437 503 37,000  Level FlightAware ADS-B
Sun 09:57:00 PM 35.0221 -77.1544 24° Northeast 437 503 37,000  Level FlightAware ADS-B
Sun 09:57:30 PM 35.0810 -77.1229 24° Northeast 438 504 37,000  Level FlightAware ADS-B
Sun 09:58:00 PM 35.1359 -77.0935 24° Northeast 439 505 37,000  Level FlightAware ADS-B
Sun 09:58:30 PM 35.1903 -77.0644 24° Northeast 439 505 37,000  Level FlightAware ADS-B
Sun 09:59:00 PM 35.2483 -77.0332 24° Northeast 440 506 37,000  Level FlightAware ADS-B
Sun 09:59:40 PM 35.3215 -76.9939 24° Northeast 441 507 37,000  Level FlightAware ADS-B
Sun 10:00:10 PM 35.3783 -76.9634 24° Northeast 443 510 37,000  Level FlightAware ADS-B
Sun 10:00:40 PM 35.4330 -76.9337 24° Northeast 444 511 37,000  Level FlightAware ADS-B
Sun 10:01:10 PM 35.4884 -76.9038 24° Northeast 445 512 37,000  Level FlightAware ADS-B
Sun 10:01:51 PM 35.5658 -76.8620 24° Northeast 446 513 37,000  Level FlightAware ADS-B
Sun 10:02:31 PM 35.6420 -76.8206 24° Northeast 447 514 37,000  Level FlightAware ADS-B
Sun 10:03:11 PM 35.7180 -76.7793 24° Northeast 448 516 37,000  Level FlightAware ADS-B
Sun 10:03:50 PM 35.7924 -76.7388 24° Northeast 449 517 37,000  Level FlightAware ADS-B
Sun 10:04:20 PM 35.8506 -76.7070 24° Northeast 448 516 37,000  Level FlightAware ADS-B
Sun 10:05:10 PM 35.9455 -76.6551 24° Northeast 445 512 37,000  Level FlightAware ADS-B
Sun 10:05:50 PM 36.0178 -76.6154 24° Northeast 442 509 37,000  Level FlightAware ADS-B
Sun 10:06:20 PM 36.0771 -76.5829 24° Northeast 441 507 37,000  Level FlightAware ADS-B
Sun 10:06:50 PM 36.1303 -76.5537 24° Northeast 440 506 37,000  Level FlightAware ADS-B
Sun 10:07:21 PM 36.1866 -76.5226 24° Northeast 440 506 37,000  Level FlightAware ADS-B
Sun 10:07:52 PM 36.2501 -76.4877 24° Northeast 439 505 37,000  Level FlightAware ADS-B (KWWD)
Sun 10:08:26 PM 36.3121 -76.4535 24° Northeast 438 504 37,000  Level FlightAware ADS-B (KWWD)
Sun 10:09:07 PM 36.3888 -76.4110 24° Northeast 438 504 37,000  Level FlightAware ADS-B (KWWD)
Sun 10:09:47 PM 36.4623 -76.3701 24° Northeast 439 505 37,000  Level FlightAware ADS-B (KWWD)
Sun 10:10:27 PM 36.5365 -76.3289 24° Northeast 439 505 37,000  Level FlightAware ADS-B (KWWD)
Sun 10:11:06 PM 36.6096 -76.2881 24° Northeast 440 506 37,000  Level FlightAware ADS-B (KWWD)
Sun 10:11:47 PM 36.6849 -76.2461 24° Northeast 441 507 37,000  Level FlightAware ADS-B (KWWD)
Sun 10:12:17 PM 36.7412 -76.2147 24° Northeast 443 510 37,000  Level FlightAware ADS-B (KWWD)
Sun 10:12:47 PM 36.7962 -76.1838 24° Northeast 442 509 37,000  Level FlightAware ADS-B (KWWD)
Sun 10:13:22 PM 36.8633 -76.1461 24° Northeast 441 507 37,000  Level FlightAware ADS-B (KWWD)
Sun 10:13:56 PM 36.9272 -76.1102 24° Northeast 440 506 37,000  Level FlightAware ADS-B (KWWD)
Sun 10:14:28 PM 36.9849 -76.0776 24° Northeast 440 506 37,000  Level FlightAware ADS-B (KWWD)
Sun 10:14:59 PM 37.0438 -76.0444 24° Northeast 439 505 37,000  Level FlightAware ADS-B (KWWD)
Sun 10:15:38 PM 37.1153 -76.0038 24° Northeast 430 495 37,000  Level FlightAware ADS-B (KWWD)
Sun 10:16:18 PM 37.1878 -75.9628 24° Northeast 428 493 37,000  Level FlightAware ADS-B (KWWD)
Sun 10:16:58 PM 37.2624 -75.9204 24° Northeast 427 491 37,000  Level FlightAware ADS-B (KWWD)
Sun 10:17:28 PM 37.3144 -75.8909 24° Northeast 426 490 37,000  Level FlightAware ADS-B (KWWD)
Sun 10:17:58 PM 37.3708 -75.8588 24° Northeast 427 491 37,000  Level FlightAware ADS-B (KWWD)
Sun 10:18:28 PM 37.4260 -75.8273 24° Northeast 429 494 37,000  Level FlightAware ADS-B (KWWD)
Sun 10:18:59 PM 37.4824 -75.7951 24° Northeast 428 493 37,000  Level FlightAware ADS-B (KWWD)
Sun 10:19:39 PM 37.5555 -75.7533 24° Northeast 428 493 37,000  Level FlightAware ADS-B (KWWD)
Sun 10:20:16 PM 37.6242 -75.7137 24° Northeast 428 493 37,000  Level FlightAware ADS-B (KWWD)
Sun 10:20:49 PM 37.6847 -75.6790 24° Northeast 428 493 37,000  Level FlightAware ADS-B (KWWD)
Sun 10:21:28 PM 37.7567 -75.6375 24° Northeast 430 495 37,000  Level FlightAware ADS-B (KWWD)
Sun 10:21:58 PM 37.8111 -75.6061 24° Northeast 430 495 37,000  Level FlightAware ADS-B (KWWD)
Sun 10:22:58 PM 37.9215 -75.5421 25° Northeast 426 490 37,000  Level FlightAware ADS-B (KWWD)
Sun 10:23:30 PM 37.9799 -75.5083 25° Northeast 427 491 37,000  Level FlightAware ADS-B (KWWD)
Sun 10:24:09 PM 38.0494 -75.4613 28° Northeast 442 509 37,000  Level FlightAware ADS-B (KWWD)
Sun 10:24:40 PM 38.1009 -75.4156 35° Northeast 454 522 37,000  Level FlightAware ADS-B (KWWD)
Sun 10:25:20 PM 38.1685 -75.3454 39° Northeast 458 527 37,000  Level FlightAware ADS-B (KWWD)
Sun 10:25:37 PM 38.1985 -75.3147 39° Northeast 459 528 37,000  Level FlightAware ADS-B (KWWD)
Sun 10:26:10 PM 38.2519 -75.2595 39° Northeast 461 531 37,000  Level FlightAware ADS-B (KWWD)
Sun 10:26:40 PM 38.3023 -75.2067 39° Northeast 461 531 37,000  Level FlightAware ADS-B (KWWD)
Sun 10:27:10 PM 38.3532 -75.1532 40° Northeast 461 531 37,000  Level FlightAware ADS-B (KWWD)
Sun 10:27:51 PM 38.4212 -75.0817 39° Northeast 463 533 37,000  Level FlightAware ADS-B (KWWD)
Sun 10:28:30 PM 38.4856 -75.0138 40° Northeast 465 535 37,000  Level FlightAware ADS-B (KWWD)
Sun 10:29:00 PM 38.5371 -74.9594 40° Northeast 466 536 37,000  Level FlightAware ADS-B (KWWD)
Sun 10:29:31 PM 38.5892 -74.9041 40° Northeast 468 539 37,000  Level FlightAware ADS-B (KWWD)
Sun 10:30:16 PM 38.6638 -74.8247 40° Northeast 467 537 37,000  Level FlightAware ADS-B (KWWD)
Sun 10:30:53 PM 38.7273 -74.7570 40° Northeast 467 537 37,000  Level FlightAware ADS-B (KWWD)
Sun 10:31:29 PM 38.7851 -74.6952 40° Northeast 466 536 37,000  Level FlightAware ADS-B (KWWD)
Sun 10:31:59 PM 38.8382 -74.6384 40° Northeast 466 536 37,000  Level FlightAware ADS-B (KWWD)
Sun 10:32:29 PM 38.8880 -74.5851 40° Northeast 464 534 37,000  Level FlightAware ADS-B (KWWD)
Sun 10:32:59 PM 38.9377 -74.5317 40° Northeast 462 532 37,000  Level FlightAware ADS-B (KWWD)
Sun 10:33:41 PM 39.0067 -74.4576 40° Northeast 468 539 37,000  Level FlightAware ADS-B (KWWD)
Sun 10:34:11 PM 39.0561 -74.4043 40° Northeast 468 539 37,000  Level FlightAware ADS-B (KWWD)
Sun 10:34:41 PM 39.1042 -74.3524 40° Northeast 467 537 37,000  Level FlightAware ADS-B (KWWD)
Sun 10:35:21 PM 39.1725 -74.2785 40° Northeast 468 539 37,000  Level FlightAware ADS-B (KWWD)
Sun 10:35:51 PM 39.2217 -74.2251 40° Northeast 469 540 37,000  Level FlightAware ADS-B (KWWD)
Sun 10:36:21 PM 39.2723 -74.1700 40° Northeast 469 540 37,000  Level FlightAware ADS-B (KWWD)
Sun 10:36:51 PM 39.3215 -74.1162 40° Northeast 467 537 37,000  Level FlightAware ADS-B (KWWD)
Sun 10:37:22 PM 39.3720 -74.0610 40° Northeast 465 535 37,000  Level FlightAware ADS-B (KWWD)
Sun 10:37:52 PM 39.4214 -74.0070 40° Northeast 465 535 37,000  Level FlightAware ADS-B (KWWD)
Sun 10:39:31 PM 39.5829 -73.8296 40° Northeast 465 535 37,000  Level FlightAware ADS-B (KWWD)
Sun 10:40:02 PM 39.6346 -73.7726 40° Northeast 468 539 37,000  Level FlightAware ADS-B (KWWD)
Sun 10:40:34 PM 39.6881 -73.7135 40° Northeast 470 541 37,000  Level FlightAware ADS-B (KSNC)
Sun 10:41:09 PM 39.7445 -73.6509 40° Northeast 470 541 37,000  Level FlightAware ADS-B (KSNC)
Sun 10:41:42 PM 39.8003 -73.5889 40° Northeast 468 539 37,000  Level FlightAware ADS-B (KWWD)
Sun 10:42:13 PM 39.8497 -73.5338 41° Northeast 468 539 37,000  Level FlightAware ADS-B (KWWD)
Sun 10:42:43 PM 39.9002 -73.4775 41° Northeast 469 540 37,000  Level FlightAware ADS-B (KWWD)
Sun 10:42:46 PM 39.8918 -73.4869 221° Southwest 469 540 37,000  Level FlightAware ADS-B (KSNC)
Sun 10:43:21 PM 39.9633 -73.4101 39° Northeast 448 516 37,000  Level FlightAware ADS-B (KWWD)
Sun 10:43:52 PM 40.0184 -73.3692 30° Northeast 441 507 37,000  Level FlightAware ADS-B (KWWD)
Sun 10:44:28 PM 40.0831 -73.3234 28° Northeast 442 509 37,000  Level FlightAware ADS-B (KSNC)
Sun 10:45:04 PM 40.1469 -73.2781 28° Northeast 440 506 37,000  Level FlightAware ADS-B (KSNC)
Sun 10:45:20 PM 40.1753 -73.2575 29° Northeast 438 504 37,000  Level FlightAware ADS-B (KSNC)
Sun 10:45:53 PM 40.2318 -73.2166 29° Northeast 427 491 37,000  Level FlightAware ADS-B (KWWD)
Sun 10:46:23 PM 40.2865 -73.1770 29° Northeast 424 488 37,000  Level FlightAware ADS-B (KWWD)
Sun 10:46:53 PM 40.3391 -73.1392 29° Northeast 425 489 37,000  Level FlightAware ADS-B (KWWD)
Sun 10:47:24 PM 40.3925 -73.1006 29° Northeast 425 489 37,000  Level FlightAware ADS-B (KWWD)
Sun 10:47:56 PM 40.4459 -73.0616 29° Northeast 435 501 37,000  Level FlightAware ADS-B (KSNC)
Sun 10:48:30 PM 40.5062 -73.0175 29° Northeast 429 494 37,000  Level FlightAware ADS-B (KSNC)
Sun 10:49:01 PM 40.5605 -72.9780 29° Northeast 428 493 37,000  Level FlightAware ADS-B (KSNC)
Sun 10:50:53 PM 40.7386 -72.8483 29° Northeast 425 489 37,000  Level Boston Center
Sun 10:51:00 PM 40.7871 -72.8113 29° Northeast  Level FlightAware Approximate
Sun 10:52:00 PM 40.9012 -72.7269 29° Northeast  Level FlightAware Approximate
Sun 10:53:00 PM 41.0153 -72.6421 29° Northeast  Level FlightAware Approximate
Sun 10:54:00 PM 41.1293 -72.5571 29° Northeast  Level FlightAware Approximate
Sun 10:55:00 PM 41.2435 -72.4721 29° Northeast  Level FlightAware Approximate
Sun 10:56:00 PM 41.3577 -72.3872 29° Northeast  Level FlightAware Approximate
Sun 10:56:30 PM 41.3451 -72.3979 29° Northeast 441 507 37,000  Level FlightAware ADS-B
Sun 10:57:00 PM 41.4004 -72.3564 29° Northeast 442 509 37,000  Level FlightAware ADS-B
Sun 10:57:30 PM 41.4541 -72.3160 29° Northeast 440 506 37,000  Level FlightAware ADS-B (KSNC)
Sun 10:58:02 PM 41.5107 -72.2734 29° Northeast 443 510 37,000  Level FlightAware ADS-B (KBKF)
Sun 10:58:59 PM 41.5623 -72.2344 29° Northeast 445 512 37,000  Level FlightAware ADS-B (KOWD)
Sun 10:59:29 PM 41.6671 -72.1549 30° Northeast 444 511 37,000  Level FlightAware ADS-B (KBKF)
Sun 10:59:59 PM 41.7201 -72.1147 30° Northeast 444 511 37,000  Level FlightAware ADS-B (KSNC)
Sun 11:00:29 PM 41.7633 -72.0818 30° Northeast 441 507 37,000  Level FlightAware ADS-B
Sun 11:00:59 PM 41.8262 -72.0338 30° Northeast 440 506 37,000  Level FlightAware ADS-B (KOWD)
Sun 11:02:00 PM 41.9342 -71.9515 30° Northeast 439 505 37,000  Level FlightAware ADS-B
Sun 11:02:31 PM 41.9868 -71.9110 30° Northeast 435 501 37,000  Level FlightAware ADS-B
Sun 11:03:03 PM 42.0442 -71.8669 30° Northeast 429 494 37,000  Level FlightAware ADS-B
Sun 11:03:33 PM 42.0965 -71.8266 30° Northeast 431 496 37,000  Level FlightAware ADS-B
Sun 11:04:03 PM 42.1487 -71.7864 30° Northeast 433 498 37,000  Level FlightAware ADS-B
Sun 11:04:13 PM 42.1660 -71.7730 30° Northeast 441 507 37,000  Level FlightAware ADS-B (KOWD)
Sun 11:04:43 PM 42.2199 -71.7313 30° Northeast 434 499 37,000  Level FlightAware ADS-B
Sun 11:05:13 PM 42.2726 -71.6905 30° Northeast 441 507 37,000  Level FlightAware ADS-B (KBKF)
Sun 11:05:43 PM 42.3261 -71.6491 30° Northeast 444 511 37,000  Level FlightAware ADS-B
Sun 11:06:20 PM 42.3904 -71.5991 30° Northeast 443 510 37,000  Level FlightAware ADS-B (KSNC)
Sun 11:06:50 PM 42.4450 -71.5565 30° Northeast 445 512 37,000  Level FlightAware ADS-B (KSNC)
Sun 11:07:21 PM 42.5005 -71.5129 30° Northeast 445 512 37,000  Level FlightAware ADS-B
Sun 11:07:43 PM 42.5398 -71.4822 30° Northeast 433 498 37,000  Level FlightAware ADS-B
Sun 11:08:03 PM 42.5728 -71.4562 30° Northeast 431 496 37,000  Level FlightAware ADS-B
Sun 11:08:09 PM 42.5856 -71.4462 30° Northeast 430 495 37,000  Level FlightAware ADS-B
Sun 11:08:33 PM 42.6262 -71.4143 30° Northeast 429 494 37,000  Level FlightAware ADS-B
Sun 11:08:40 PM 42.6389 -71.4044 30° Northeast 429 494 37,000  Level FlightAware ADS-B
Sun 11:08:59 PM 42.6719 -71.3783 30° Northeast 427 491 37,000  Level FlightAware ADS-B
Sun 11:09:11 PM 42.6930 -71.3617 30° Northeast 426 490 37,000  Level FlightAware ADS-B
Sun 11:09:41 PM 42.7443 -71.3214 30° Northeast 432 497 37,000  Level FlightAware ADS-B
Sun 11:10:11 PM 42.7950 -71.2815 30° Northeast 432 497 37,000  Level FlightAware ADS-B
Sun 11:10:41 PM 42.8462 -71.2409 30° Northeast 437 503 37,000  Level FlightAware ADS-B
Sun 11:11:02 PM 42.8848 -71.2104 30° Northeast 433 498 37,000  Level FlightAware ADS-B
Sun 11:11:13 PM 42.9047 -71.1947 30° Northeast 435 501 37,000  Level FlightAware ADS-B
Sun 11:11:43 PM 42.9572 -71.1528 30° Northeast 444 511 37,000  Level FlightAware ADS-B
Sun 11:12:13 PM 43.0111 -71.1097 30° Northeast 436 502 37,000  Level FlightAware ADS-B
Sun 11:17:12 PM 43.5354 -70.6874 30° Northeast 439 505 37,000  Level FlightAware ADS-B
Sun 11:17:43 PM 43.5898 -70.6431 31° Northeast 433 498 37,000  Level FlightAware ADS-B
Sun 11:18:15 PM 43.6444 -70.5985 31° Northeast 441 507 37,000  Level FlightAware ADS-B (KBKF)
Sun 11:18:50 PM 43.7084 -70.5460 31° Northeast 439 505 37,000  Level FlightAware ADS-B (KBKF)
Sun 11:19:21 PM 43.7626 -70.5017 31° Northeast 442 509 37,000  Level FlightAware ADS-B
Sun 11:19:51 PM 43.8142 -70.4594 31° Northeast 446 513 37,000  Level FlightAware ADS-B
Sun 11:20:23 PM 43.8693 -70.4139 31° Northeast 445 512 37,000  Level FlightAware ADS-B (KBKF)
Sun 11:20:53 PM 43.9251 -70.3678 31° Northeast 446 513 37,000  Level FlightAware ADS-B
Sun 11:21:25 PM 43.9714 -70.3296 31° Northeast 444 511 37,000  Level FlightAware ADS-B (KBKF)
Sun 11:21:56 PM 44.0230 -70.2868 31° Northeast 448 516 37,000  Level FlightAware ADS-B (KBKF)
Sun 11:22:31 PM 44.1066 -70.2173 31° Northeast 453 521 37,000  Level FlightAware ADS-B
Sun 11:23:03 PM 44.1558 -70.1764 31° Northeast 455 524 37,000  Level FlightAware ADS-B
Sun 11:23:33 PM 44.2102 -70.1308 31° Northeast 454 522 37,000  Level FlightAware ADS-B
Sun 11:24:04 PM 44.2656 -70.0844 31° Northeast 452 520 37,000  Level FlightAware ADS-B
Sun 11:24:45 PM 44.3355 -70.0258 31° Northeast 451 519 37,000  Level FlightAware ADS-B
Sun 11:25:25 PM 44.4097 -69.9635 31° Northeast 452 520 37,000  Level FlightAware ADS-B
Sun 11:25:55 PM 44.4635 -69.9182 31° Northeast 452 520 37,000  Level FlightAware ADS-B
Sun 11:26:28 PM 44.5225 -69.8682 31° Northeast 451 519 37,000  Level FlightAware ADS-B
Sun 11:26:51 PM 44.5607 -69.8357 31° Northeast 447 514 37,000  Level FlightAware ADS-B (EHTW / ENS)
Sun 11:46:25 PM 46.6019 -68.0272 31° Northeast 440 506 37,000  Level Boston Center
Sun 11:47:26 PM 46.7014 -67.9356 32° Northeast 446 513 37,000  Level Boston Center
Sun 11:48:26 PM 46.8086 -67.8367 32° Northeast 454 522 37,000  Level Boston Center
Sun 11:53:36 PM 47.3794 -67.2976 32° Northeast 460 529 37,000  Level FlightAware ADS-B
Sun 11:59:00 PM 47.9622 -66.7448 32° Northeast  Level FlightAware Approximate
Mon 12:00:00 AM 48.0698 -66.6411 33° Northeast  Level FlightAware Approximate
Mon 12:01:00 AM 48.1773 -66.5369 33° Northeast  Level FlightAware Approximate
Mon 12:02:00 AM 48.2848 -66.4323 33° Northeast  Level FlightAware Approximate
Mon 12:02:17 AM 48.3000 -66.4167 33° Northeast 460 529 37,000  Level Gander Center
Mon 12:03:00 AM 48.3922 -66.3273 33° Northeast  Level FlightAware Approximate
Mon 12:03:17 AM 48.4000 -66.3167 34° Northeast 470 541 37,000  Level Gander Center
Mon 12:04:00 AM 48.4994 -66.2218 33° Northeast  Level FlightAware Approximate
Mon 12:04:17 AM 48.5000 -66.2000 38° Northeast 460 529 37,000  Level Gander Center
Mon 12:05:00 AM 48.6066 -66.1159 33° Northeast  Level FlightAware Approximate
Mon 12:05:17 AM 48.6167 -66.0833 33° Northeast 460 529 37,000  Level Gander Center
Mon 12:06:00 AM 48.7136 -66.0095 33° Northeast  Level FlightAware Approximate
Mon 12:06:17 AM 48.7167 -66.0000 29° Northeast 460 529 37,000  Level Gander Center
Mon 12:07:00 AM 48.8206 -65.9027 33° Northeast  Level FlightAware Approximate
Mon 12:07:17 AM 48.8167 -65.8833 38° Northeast 460 529 37,000  Level Gander Center
Mon 12:08:17 AM 48.9500 -65.7667 30° Northeast 460 529 37,000  Level Gander Center
Mon 12:09:17 AM 49.0500 -65.6667 33° Northeast 460 529 37,000  Level Gander Center
Mon 12:10:17 AM 49.1333 -65.5833 33° Northeast 460 529 37,000  Level Gander Center
Mon 12:11:17 AM 49.2500 -65.4500 37° Northeast 460 529 37,000  Level Gander Center
Mon 12:22:43 AM 50.4833 -64.1667 33° Northeast 470 541 37,000  Level Moncton Center
Mon 12:23:17 AM 50.5500 -64.1000 32° Northeast 470 541 37,000  Level Gander Center
Mon 12:24:17 AM 50.6500 -63.9667 40° Northeast 470 541 37,000  Level Gander Center
Mon 12:25:17 AM 50.7167 -63.7833 60° Northeast 470 541 37,000  Level Gander Center
Mon 12:26:17 AM 50.7500 -63.5833 75° East 470 541 37,000  Level Gander Center
Mon 12:27:17 AM 50.7833 -63.3667 76° East 470 541 37,000  Level Gander Center
Mon 12:28:17 AM 50.8333 -63.1833 67° East 480 552 37,000  Level Gander Center
Mon 12:29:17 AM 50.8833 -62.9833 68° East 480 552 37,000  Level Gander Center
Mon 12:30:17 AM 50.9167 -62.8000 74° East 480 552 37,000  Level Gander Center
Mon 12:31:17 AM 50.9500 -62.5833 76° East 480 552 37,000  Level Gander Center
Mon 12:32:17 AM 50.9833 -62.3667 76° East 480 552 37,000  Level Gander Center
Mon 12:33:17 AM 51.0167 -62.1667 75° East 480 552 37,000  Level Gander Center
Mon 12:34:17 AM 51.0500 -61.9667 75° East 490 564 37,000  Level Gander Center
Mon 12:35:17 AM 51.0833 -61.7333 77° East 490 564 37,000  Level Gander Center
Mon 12:36:17 AM 51.1167 -61.5500 74° East 490 564 37,000  Level Gander Center
Mon 12:37:17 AM 51.1500 -61.3167 77° East 490 564 37,000  Level Gander Center
Mon 12:38:17 AM 51.1833 -61.1167 75° East 490 564 37,000  Level Gander Center
Mon 12:39:17 AM 51.2333 -60.9000 70° East 480 552 37,000  Level Gander Center
Mon 12:40:17 AM 51.2667 -60.7000 75° East 480 552 37,000  Level Gander Center
Mon 12:41:17 AM 51.3000 -60.4833 76° East 490 564 37,000  Level Gander Center
Mon 12:42:17 AM 51.3333 -60.2667 76° East 490 564 37,000  Level Gander Center
Mon 12:43:17 AM 51.3667 -60.0833 74° East 490 564 37,000  Level Gander Center
Mon 12:44:17 AM 51.4000 -59.8667 76° East 490 564 37,000  Level Gander Center
Mon 12:45:17 AM 51.4333 -59.6500 76° East 490 564 37,000  Level Gander Center
Mon 12:46:17 AM 51.4667 -59.4333 76° East 490 564 37,000  Level Gander Center
Mon 12:47:17 AM 51.4833 -59.2167 83° East 490 564 37,000  Level Gander Center
Mon 12:48:17 AM 51.5333 -59.0000 70° East 490 564 37,000  Level Gander Center
Mon 12:49:17 AM 51.5667 -58.7833 76° East 490 564 37,000  Level Gander Center
Mon 12:50:17 AM 51.6000 -58.5667 76° East 490 564 37,000  Level Gander Center
Mon 12:51:17 AM 51.6167 -58.3500 83° East 490 564 37,000  Level Gander Center
Mon 12:52:17 AM 51.6500 -58.1333 76° East 490 564 37,000  Level Gander Center
Mon 12:53:17 AM 51.6833 -57.9167 76° East 490 564 37,000  Level Gander Center
Mon 12:54:17 AM 51.7000 -57.7167 82° East 490 564 37,000  Level Gander Center
Mon 12:55:17 AM 51.7500 -57.4667 72° East 490 564 37,000  Level Gander Center
Mon 12:56:17 AM 51.7667 -57.2500 83° East 500 575 37,000  Level Gander Center
Mon 12:57:17 AM 51.8000 -57.0333 76° East 500 575 37,000  Level Gander Center
Mon 12:58:17 AM 51.8167 -56.8167 83° East 500 575 37,000 200 Level Gander Center
Mon 12:59:17 AM 51.8500 -56.6000 76° East 510 587 37,400 450 Climbing Gander Center
Mon 01:00:17 AM 51.8667 -56.3833 83° East 500 575 37,900 300 Climbing Gander Center
Mon 01:01:17 AM 51.9167 -56.1333 72° East 510 587 38,000 50 Climbing Gander Center
Mon 01:02:17 AM 51.9333 -55.9333 82° East 510 587 38,000  Level Gander Center
Mon 01:03:17 AM 51.9667 -55.7167 76° East 510 587 38,000  Level Gander Center
Mon 01:04:17 AM 51.9833 -55.4667 84° East 490 564 38,000  Level Gander Center
Mon 01:05:17 AM 52.0000 -55.2500 83° East 520 598 38,000  Level Gander Center
Mon 01:06:17 AM 52.0500 -55.0000 72° East 520 598 38,000  Level Gander Center
Mon 01:07:17 AM 52.0667 -54.7833 83° East 520 598 38,000  Level Gander Center
Mon 01:08:17 AM 52.0833 -54.5333 84° East 530 610 38,000  Level Gander Center
Mon 01:09:17 AM 52.1000 -54.3000 83° East 520 598 38,000  Level Gander Center
Mon 01:10:17 AM 52.1333 -54.0500 78° East 530 610 38,000  Level Gander Center
Mon 01:11:17 AM 52.1667 -53.8333 76° East 530 610 38,000  Level Gander Center
Mon 01:12:17 AM 52.1833 -53.5833 84° East 530 610 38,000  Level Gander Center
Mon 01:13:17 AM 52.2167 -53.3500 77° East 530 610 38,000  Level Gander Center
Mon 01:14:17 AM 52.2500 -53.1333 76° East 540 621 38,000  Level Gander Center
Mon 01:15:17 AM 52.3167 -52.8667 68° East 550 633 38,000  Level Gander Center
Mon 01:16:17 AM 52.3667 -52.6667 68° East 550 633 38,000  Level Gander Center
Mon 01:17:17 AM 52.4333 -52.4167 66° East 550 633 38,000  Level Gander Center
Mon 01:18:17 AM 52.4833 -52.2000 69° East 550 633 38,000  Level Gander Center
Mon 01:19:17 AM 52.5500 -51.9500 66° East 550 633 38,000  Level Gander Center
Mon 01:20:17 AM 52.5833 -51.7500 75° East 560 644 38,000  Level Gander Center
Mon 01:21:17 AM 52.6500 -51.5000 66° East 550 633 38,000  Level Gander Center
Mon 01:22:17 AM 52.7000 -51.2667 70° East 560 644 38,000  Level Gander Center
Mon 01:23:17 AM 52.7333 -51.0333 77° East 550 633 38,000  Level Gander Center
Mon 01:24:17 AM 52.8000 -50.7667 67° East 560 644 38,000  Level Gander Center
Mon 01:25:17 AM 52.8500 -50.5333 70° East 560 644 38,000  Level Gander Center
Mon 01:26:17 AM 52.9167 -50.3000 65° Northeast 570 656 38,000  Level Gander Center
Mon 01:27:17 AM 52.9500 -50.0667 77° East 560 644 38,000  Level Gander Center
Mon 01:28:17 AM 53.0667 -49.8333 50° Northeast 570 656 38,000 Level Gander Center
Mon 01:30:00 AM 53.2380 -49.6029 39° Northeast  Level FlightAware Approximate
Mon 01:37:00 AM 53.9320 -48.6438 39° Northeast  Level FlightAware Approximate
Mon 01:38:00 AM 54.0305 -48.5042 40° Northeast  Level FlightAware Approximate
Mon 01:39:00 AM 54.1288 -48.3640 40° Northeast  Level FlightAware Approximate
Mon 01:40:00 AM 54.2270 -48.2230 40° Northeast  Level FlightAware Approximate
Mon 01:41:00 AM 54.3250 -48.0814 40° Northeast  Level FlightAware Approximate
Mon 01:42:00 AM 54.4229 -47.9392 40° Northeast  Level FlightAware Approximate
Mon 01:43:00 AM 54.5206 -47.7962 40° Northeast  Level FlightAware Approximate
Mon 01:44:00 AM 54.6181 -47.6525 40° Northeast  Level FlightAware Approximate
Mon 01:45:00 AM 54.7154 -47.5082 41° Northeast  Level FlightAware Approximate
Mon 01:46:00 AM 54.8126 -47.3632 41° Northeast  Level FlightAware Approximate
Mon 01:47:00 AM 54.9096 -47.2174 41° Northeast  Level FlightAware Approximate
Mon 01:48:00 AM 55.0064 -47.0710 41° Northeast  Level FlightAware Approximate
Mon 01:49:00 AM 55.1030 -46.9239 41° Northeast  Level FlightAware Approximate
Mon 01:50:00 AM 55.1995 -46.7760 41° Northeast  Level FlightAware Approximate
Mon 01:51:00 AM 55.2958 -46.6275 41° Northeast  Level FlightAware Approximate
Mon 01:52:00 AM 55.3919 -46.4782 41° Northeast  Level FlightAware Approximate
Mon 01:53:00 AM 55.4878 -46.3282 42° Northeast  Level FlightAware Approximate
Mon 01:54:00 AM 55.5835 -46.1774 42° Northeast  Level FlightAware Approximate
Mon 01:55:00 AM 55.6791 -46.0259 42° Northeast  Level FlightAware Approximate
Mon 01:56:00 AM 55.7744 -45.8737 42° Northeast  Level FlightAware Approximate
Mon 01:57:00 AM 55.8696 -45.7207 42° Northeast  Level FlightAware Approximate
Mon 01:58:00 AM 55.9646 -45.5670 42° Northeast  Level FlightAware Approximate
Mon 01:59:00 AM 56.0594 -45.4125 42° Northeast  Level FlightAware Approximate
Mon 02:00:00 AM 56.1540 -45.2573 42° Northeast  Level FlightAware Approximate
Mon 02:01:00 AM 56.2484 -45.1013 43° Northeast  Level FlightAware Approximate
Mon 02:02:00 AM 56.3426 -44.9445 43° Northeast  Level FlightAware Approximate
Mon 02:03:00 AM 56.4366 -44.7869 43° Northeast  Level FlightAware Approximate
Mon 02:04:00 AM 56.5304 -44.6286 43° Northeast  Level FlightAware Approximate
Mon 02:05:00 AM 56.6240 -44.4695 43° Northeast  Level FlightAware Approximate
Mon 02:06:00 AM 56.7174 -44.3096 43° Northeast  Level FlightAware Approximate
Mon 02:07:00 AM 56.8106 -44.1489 43° Northeast  Level FlightAware Approximate
Mon 02:08:00 AM 56.9036 -43.9874 43° Northeast  Level FlightAware Approximate
Mon 02:09:00 AM 56.9963 -43.8251 44° Northeast  Level FlightAware Approximate
Mon 02:10:00 AM 57.0889 -43.6619 44° Northeast  Level FlightAware Approximate
Mon 02:11:00 AM 57.1813 -43.4980 44° Northeast  Level FlightAware Approximate
Mon 02:12:00 AM 57.2734 -43.3333 44° Northeast  Level FlightAware Approximate
Mon 02:13:00 AM 57.3653 -43.1677 44° Northeast  Level FlightAware Approximate
Mon 02:14:00 AM 57.4570 -43.0013 44° Northeast  Level FlightAware Approximate
Mon 02:15:00 AM 57.5485 -42.8340 44° Northeast  Level FlightAware Approximate
Mon 02:16:00 AM 57.6398 -42.6659 45° Northeast  Level FlightAware Approximate
Mon 02:17:00 AM 57.7308 -42.4970 45° Northeast  Level FlightAware Approximate
Mon 02:18:00 AM 57.8216 -42.3272 45° Northeast  Level FlightAware Approximate
Mon 02:19:00 AM 57.9122 -42.1566 45° Northeast  Level FlightAware Approximate
Mon 02:20:00 AM 58.0025 -41.9851 45° Northeast  Level FlightAware Approximate
Mon 02:21:00 AM 58.0927 -41.8127 45° Northeast  Level FlightAware Approximate
Mon 02:22:00 AM 58.1825 -41.6395 45° Northeast  Level FlightAware Approximate
Mon 02:23:00 AM 58.2722 -41.4653 46° Northeast  Level FlightAware Approximate
Mon 02:24:00 AM 58.3616 -41.2903 46° Northeast  Level FlightAware Approximate
Mon 02:25:00 AM 58.4508 -41.1144 46° Northeast  Level FlightAware Approximate
Mon 02:26:00 AM 58.5397 -40.9377 46° Northeast  Level FlightAware Approximate
Mon 02:27:00 AM 58.6284 -40.7600 46° Northeast  Level FlightAware Approximate
Mon 02:28:00 AM 58.7168 -40.5814 46° Northeast  Level FlightAware Approximate
Mon 02:29:00 AM 58.8050 -40.4019 46° Northeast  Level FlightAware Approximate
Mon 02:30:00 AM 58.8930 -40.2215 47° Northeast  Level FlightAware Approximate
Mon 02:31:00 AM 58.9807 -40.0402 47° Northeast  Level FlightAware Approximate
Mon 02:32:00 AM 59.0580 -39.8411 55° Northeast  Level FlightAware Approximate
Mon 02:33:00 AM 59.1320 -39.6371 55° Northeast  Level FlightAware Approximate
Mon 02:34:00 AM 59.2056 -39.4323 55° Northeast  Level FlightAware Approximate
Mon 02:35:00 AM 59.2789 -39.2265 55° Northeast  Level FlightAware Approximate
Mon 02:36:00 AM 59.3518 -39.0199 55° Northeast  Level FlightAware Approximate
Mon 02:37:00 AM 59.4244 -38.8124 55° Northeast  Level FlightAware Approximate
Mon 02:38:00 AM 59.4967 -38.6039 56° Northeast  Level FlightAware Approximate
Mon 02:39:00 AM 59.5687 -38.3946 56° Northeast  Level FlightAware Approximate
Mon 02:40:00 AM 59.6403 -38.1844 56° Northeast  Level FlightAware Approximate
Mon 02:41:00 AM 59.7116 -37.9733 56° Northeast  Level FlightAware Approximate
Mon 02:42:00 AM 59.7826 -37.7613 56° Northeast  Level FlightAware Approximate
Mon 02:43:00 AM 59.8532 -37.5484 56° Northeast  Level FlightAware Approximate
Mon 02:44:00 AM 59.9235 -37.3346 57° Northeast  Level FlightAware Approximate
Mon 02:45:00 AM 59.9934 -37.1199 57° Northeast  Level FlightAware Approximate
Mon 02:46:00 AM 60.0630 -36.9043 57° Northeast  Level FlightAware Approximate
Mon 02:47:00 AM 60.1322 -36.6878 57° Northeast  Level FlightAware Approximate
Mon 02:48:00 AM 60.2010 -36.4703 57° Northeast  Level FlightAware Approximate
Mon 02:49:00 AM 60.2695 -36.2520 58° Northeast  Level FlightAware Approximate
Mon 02:50:00 AM 60.3377 -36.0327 58° Northeast  Level FlightAware Approximate
Mon 02:51:00 AM 60.4054 -35.8125 58° Northeast  Level FlightAware Approximate
Mon 02:52:00 AM 60.4729 -35.5914 58° Northeast  Level FlightAware Approximate
Mon 02:53:00 AM 60.5399 -35.3694 58° Northeast  Level FlightAware Approximate
Mon 02:54:00 AM 60.6066 -35.1465 59° Northeast  Level FlightAware Approximate
Mon 02:55:00 AM 60.6729 -34.9226 59° Northeast  Level FlightAware Approximate
Mon 02:56:00 AM 60.7388 -34.6979 59° Northeast  Level FlightAware Approximate
Mon 02:57:00 AM 60.8044 -34.4722 59° Northeast  Level FlightAware Approximate
Mon 02:58:00 AM 60.8696 -34.2455 59° Northeast  Level FlightAware Approximate
Mon 02:59:00 AM 60.9344 -34.0180 60° Northeast  Level FlightAware Approximate
Mon 03:00:00 AM 60.9988 -33.7895 60° Northeast  Level FlightAware Approximate
Mon 03:01:00 AM 61.0628 -33.5601 60° Northeast  Level FlightAware Approximate
Mon 03:02:00 AM 61.1264 -33.3298 60° Northeast  Level FlightAware Approximate
Mon 03:03:00 AM 61.1897 -33.0986 60° Northeast  Level FlightAware Approximate
Mon 03:04:00 AM 61.2525 -32.8664 61° Northeast  Level FlightAware Approximate
Mon 03:05:00 AM 61.3149 -32.6333 61° Northeast  Level FlightAware Approximate
Mon 03:06:00 AM 61.3770 -32.3993 61° Northeast  Level FlightAware Approximate
Mon 03:07:00 AM 61.4386 -32.1643 61° Northeast  Level FlightAware Approximate
Mon 03:08:00 AM 61.4999 -31.9284 61° Northeast  Level FlightAware Approximate
Mon 03:09:00 AM 61.5611 -31.6921 60° Northeast  Level FlightAware Approximate
Mon 03:10:00 AM 61.6240 -31.4572 61° Northeast  Level FlightAware Approximate
Mon 03:11:00 AM 61.6866 -31.2214 61° Northeast  Level FlightAware Approximate
Mon 03:12:00 AM 61.7487 -30.9847 61° Northeast  Level FlightAware Approximate
Mon 03:13:00 AM 61.8104 -30.7470 61° Northeast  Level FlightAware Approximate
Mon 03:14:00 AM 61.8717 -30.5083 61° Northeast  Level FlightAware Approximate
Mon 03:15:00 AM 61.9325 -30.2687 62° Northeast  Level FlightAware Approximate
Mon 03:16:00 AM 61.9930 -30.0281 62° Northeast  Level FlightAware Approximate
Mon 03:17:00 AM 62.0322 -29.7685 73° East  Level FlightAware Approximate
Mon 03:18:00 AM 62.0682 -29.5059 74° East  Level FlightAware Approximate
Mon 03:19:00 AM 62.1037 -29.2427 74° East  Level FlightAware Approximate
Mon 03:20:00 AM 62.1387 -28.9789 74° East  Level FlightAware Approximate
Mon 03:21:00 AM 62.1732 -28.7145 74° East  Level FlightAware Approximate
Mon 03:22:00 AM 62.2072 -28.4495 75° East  Level FlightAware Approximate
Mon 03:23:00 AM 62.2407 -28.1839 75° East  Level FlightAware Approximate
Mon 03:24:00 AM 62.2737 -27.9177 75° East  Level FlightAware Approximate
Mon 03:25:00 AM 62.3062 -27.6509 75° East  Level FlightAware Approximate
Mon 03:26:00 AM 62.3381 -27.3835 75° East  Level FlightAware Approximate
Mon 03:27:00 AM 62.3696 -27.1156 76° East  Level FlightAware Approximate
Mon 03:28:00 AM 62.4005 -26.8472 76° East  Level FlightAware Approximate
Mon 03:29:00 AM 62.4309 -26.5781 76° East  Level FlightAware Approximate
Mon 03:30:00 AM 62.4608 -26.3086 76° East  Level FlightAware Approximate
Mon 03:31:00 AM 62.4902 -26.0385 77° East  Level FlightAware Approximate
Mon 03:32:00 AM 62.5190 -25.7678 77° East  Level FlightAware Approximate
Mon 03:33:00 AM 62.5474 -25.4967 77° East  Level FlightAware Approximate
Mon 03:34:00 AM 62.5751 -25.2250 77° East  Level FlightAware Approximate
Mon 03:35:00 AM 62.6024 -24.9529 78° East  Level FlightAware Approximate
Mon 03:36:00 AM 62.6292 -24.6802 78° East  Level FlightAware Approximate
Mon 03:37:00 AM 62.6554 -24.4071 78° East  Level FlightAware Approximate
Mon 03:38:00 AM 62.6810 -24.1334 78° East  Level FlightAware Approximate
Mon 03:39:00 AM 62.7062 -23.8594 79° East  Level FlightAware Approximate
Mon 03:40:00 AM 62.7308 -23.5848 79° East  Level FlightAware Approximate
Mon 03:41:00 AM 62.7549 -23.3098 79° East  Level FlightAware Approximate
Mon 03:42:00 AM 62.7784 -23.0343 79° East  Level FlightAware Approximate
Mon 03:43:00 AM 62.8014 -22.7584 80° East  Level FlightAware Approximate
Mon 03:44:00 AM 62.8238 -22.4821 80° East  Level FlightAware Approximate
Mon 03:45:00 AM 62.8457 -22.2054 80° East  Level FlightAware Approximate
Mon 03:46:00 AM 62.8671 -21.9283 80° East  Level FlightAware Approximate
Mon 03:47:00 AM 62.8879 -21.6507 81° East  Level FlightAware Approximate
Mon 03:48:00 AM 62.9082 -21.3728 81° East  Level FlightAware Approximate
Mon 03:49:00 AM 62.9280 -21.0945 81° East  Level FlightAware Approximate
Mon 03:50:00 AM 62.9471 -20.8158 81° East  Level FlightAware Approximate
Mon 03:51:00 AM 62.9658 -20.5368 82° East  Level FlightAware Approximate
Mon 03:52:00 AM 62.9838 -20.2574 82° East  Level FlightAware Approximate
Mon 03:53:00 AM 63.0030 -19.9784 73° East  Level FlightAware Approximate
Mon 03:54:00 AM 63.0404 -19.7080 73° East  Level FlightAware Approximate
Mon 03:55:00 AM 63.0772 -19.4370 73° East  Level FlightAware Approximate
Mon 03:56:00 AM 63.1135 -19.1652 73° East  Level FlightAware Approximate
Mon 03:57:00 AM 63.1493 -18.8927 74° East  Level FlightAware Approximate
Mon 03:58:00 AM 63.1846 -18.6196 74° East  Level FlightAware Approximate
Mon 03:59:00 AM 63.2194 -18.3458 74° East  Level FlightAware Approximate
Mon 04:00:00 AM 63.2536 -18.0714 74° East  Level FlightAware Approximate
Mon 04:01:00 AM 63.2873 -17.7963 75° East  Level FlightAware Approximate
Mon 04:02:00 AM 63.3204 -17.5206 75° East  Level FlightAware Approximate
Mon 04:03:00 AM 63.3531 -17.2443 75° East  Level FlightAware Approximate
Mon 04:04:00 AM 63.3852 -16.9673 75° East  Level FlightAware Approximate
Mon 04:05:00 AM 63.4167 -16.6897 76° East  Level FlightAware Approximate
Mon 04:06:00 AM 63.4478 -16.4115 76° East  Level FlightAware Approximate
Mon 04:07:00 AM 63.4782 -16.1327 76° East  Level FlightAware Approximate
Mon 04:08:00 AM 63.5082 -15.8534 76° East  Level FlightAware Approximate
Mon 04:09:00 AM 63.5376 -15.5734 77° East  Level FlightAware Approximate
Mon 04:10:00 AM 63.5664 -15.2929 77° East  Level FlightAware Approximate
Mon 04:11:00 AM 63.5947 -15.0118 77° East  Level FlightAware Approximate
Mon 04:12:00 AM 63.6224 -14.7301 77° East  Level FlightAware Approximate
Mon 04:13:00 AM 63.6496 -14.4480 78° East  Level FlightAware Approximate
Mon 04:14:00 AM 63.6763 -14.1652 78° East  Level FlightAware Approximate
Mon 04:15:00 AM 63.7023 -13.8820 78° East  Level FlightAware Approximate
Mon 04:16:00 AM 63.7279 -13.5982 78° East  Level FlightAware Approximate
Mon 04:17:00 AM 63.7528 -13.3139 79° East  Level FlightAware Approximate
Mon 04:18:00 AM 63.7772 -13.0291 79° East  Level FlightAware Approximate
Mon 04:19:00 AM 63.8011 -12.7439 79° East  Level FlightAware Approximate
Mon 04:20:00 AM 63.8244 -12.4581 79° East  Level FlightAware Approximate
Mon 04:21:00 AM 63.8471 -12.1719 80° East  Level FlightAware Approximate
Mon 04:22:00 AM 63.8692 -11.8853 80° East  Level FlightAware Approximate
Mon 04:23:00 AM 63.8908 -11.5982 80° East  Level FlightAware Approximate
Mon 04:24:00 AM 63.9118 -11.3106 80° East  Level FlightAware Approximate
Mon 04:25:00 AM 63.9323 -11.0226 81° East  Level FlightAware Approximate
Mon 04:26:00 AM 63.9521 -10.7343 81° East  Level FlightAware Approximate
Mon 04:27:00 AM 63.9714 -10.4455 81° East  Level FlightAware Approximate
Mon 04:28:00 AM 63.9901 -10.1563 81° East  Level FlightAware Approximate
Mon 04:29:00 AM 64.0046 -9.8658 86° East  Level FlightAware Approximate
Mon 04:30:00 AM 64.0141 -9.5740 86° East  Level FlightAware Approximate
Mon 04:31:00 AM 64.0229 -9.2820 86° East  Level FlightAware Approximate
Mon 04:32:00 AM 64.0313 -8.9898 86° East  Level FlightAware Approximate
Mon 04:33:00 AM 64.0390 -8.6975 86° East  Level FlightAware Approximate
Mon 04:34:00 AM 64.0461 -8.4050 87° East  Level FlightAware Approximate
Mon 04:35:00 AM 64.0527 -8.1123 87° East  Level FlightAware Approximate
Mon 04:36:00 AM 64.0587 -7.8195 87° East  Level FlightAware Approximate
Mon 04:37:00 AM 64.0640 -7.5266 87° East  Level FlightAware Approximate
Mon 04:38:00 AM 64.0688 -7.2336 88° East  Level FlightAware Approximate
Mon 04:39:00 AM 64.0730 -6.9405 88° East  Level FlightAware Approximate
Mon 04:40:00 AM 64.0767 -6.6473 88° East  Level FlightAware Approximate
Mon 04:41:00 AM 64.0797 -6.3541 89° East  Level FlightAware Approximate
Mon 04:42:00 AM 64.0821 -6.0608 89° East  Level FlightAware Approximate
Mon 04:43:00 AM 64.0839 -5.7674 89° East  Level FlightAware Approximate
Mon 04:44:00 AM 64.0852 -5.4740 89° East  Level FlightAware Approximate
Mon 04:45:00 AM 64.0859 -5.1806 90° East  Level FlightAware Approximate
Mon 04:46:00 AM 64.0859 -4.8872 90° East  Level FlightAware Approximate
Mon 04:47:00 AM 64.0854 -4.5938 90° East  Level FlightAware Approximate
Mon 04:48:00 AM 64.0843 -4.3004 90° East  Level FlightAware Approximate
Mon 04:49:00 AM 64.0826 -4.0070 91° East  Level FlightAware Approximate
Mon 04:50:00 AM 64.0803 -3.7137 91° East  Level FlightAware Approximate
Mon 04:51:00 AM 64.0774 -3.4204 91° East  Level FlightAware Approximate
Mon 04:52:00 AM 64.0739 -3.1272 91° East  Level FlightAware Approximate
Mon 04:53:00 AM 64.0699 -2.8341 92° East  Level FlightAware Approximate
Mon 04:54:00 AM 64.0652 -2.5411 92° East  Level FlightAware Approximate
Mon 04:55:00 AM 64.0600 -2.2482 92° East  Level FlightAware Approximate
Mon 04:56:00 AM 64.0542 -1.9554 92° East  Level FlightAware Approximate
Mon 04:57:00 AM 64.0477 -1.6627 93° East  Level FlightAware Approximate
Mon 04:58:00 AM 64.0407 -1.3701 93° East  Level FlightAware Approximate
Mon 04:59:00 AM 64.0331 -1.0777 93° East  Level FlightAware Approximate
Mon 05:00:00 AM 64.0249 -0.7855 94° East  Level FlightAware Approximate
Mon 05:01:00 AM 64.0162 -0.4935 94° East  Level FlightAware Approximate
Mon 05:02:00 AM 64.0068 -0.2016 94° East  Level FlightAware Approximate
Mon 05:03:00 AM 63.9959 0.0898 96° East  Level FlightAware Approximate
Mon 05:04:00 AM 63.9823 0.3806 96° East  Level FlightAware Approximate
Mon 05:05:00 AM 63.9681 0.6710 96° East  Level FlightAware Approximate
Mon 05:06:00 AM 63.9533 0.9612 96° East  Level FlightAware Approximate
Mon 05:07:00 AM 63.9379 1.2510 97° East  Level FlightAware Approximate
Mon 05:08:00 AM 63.9220 1.5405 97° East  Level FlightAware Approximate
Mon 05:09:00 AM 63.9054 1.8297 97° East  Level FlightAware Approximate
Mon 05:10:00 AM 63.8883 2.1186 98° East  Level FlightAware Approximate
Mon 05:11:00 AM 63.8707 2.4070 98° East  Level FlightAware Approximate
Mon 05:12:00 AM 63.8524 2.6951 98° East  Level FlightAware Approximate
Mon 05:13:00 AM 63.8336 2.9829 98° East  Level FlightAware Approximate
Mon 05:14:00 AM 63.8142 3.2702 99° East  Level FlightAware Approximate
Mon 05:15:00 AM 63.7942 3.5571 99° East  Level FlightAware Approximate
Mon 05:16:00 AM 63.7737 3.8437 99° East  Level FlightAware Approximate
Mon 05:17:00 AM 63.7526 4.1298 99° East  Level FlightAware Approximate
Mon 05:18:00 AM 63.7309 4.4155 100° East  Level FlightAware Approximate
Mon 05:19:00 AM 63.7087 4.7007 100° East  Level FlightAware Approximate
Mon 05:20:00 AM 63.6859 4.9855 100° East  Level FlightAware Approximate
Mon 05:21:00 AM 63.6626 5.2698 100° East  Level FlightAware Approximate
Mon 05:22:00 AM 63.6387 5.5536 101° East  Level FlightAware Approximate
Mon 05:23:00 AM 63.6142 5.8370 101° East  Level FlightAware Approximate
Mon 05:24:00 AM 63.5892 6.1198 101° East  Level FlightAware Approximate
Mon 05:25:00 AM 63.5636 6.4022 101° East  Level FlightAware Approximate
Mon 05:26:00 AM 63.5374 6.6841 102° East  Level FlightAware Approximate
Mon 05:27:00 AM 63.5108 6.9654 102° East  Level FlightAware Approximate
Mon 05:28:00 AM 63.4835 7.2462 102° East  Level FlightAware Approximate
Mon 05:29:00 AM 63.4557 7.5264 102° East  Level FlightAware Approximate
Mon 05:30:00 AM 63.4274 7.8061 103° East  Level FlightAware Approximate
Mon 05:31:00 AM 63.3985 8.0853 103° East  Level FlightAware Approximate
Mon 05:32:00 AM 63.3691 8.3639 103° East  Level FlightAware Approximate
Mon 05:33:00 AM 63.3391 8.6419 103° East  Level FlightAware Approximate
Mon 05:34:00 AM 63.3086 8.9193 104° East  Level FlightAware Approximate
Mon 05:35:00 AM 63.2776 9.1961 104° East  Level FlightAware Approximate
Mon 05:36:00 AM 63.2460 9.4724 104° East  Level FlightAware Approximate
Mon 05:37:00 AM 63.2139 9.7480 104° East  Level FlightAware Approximate
Mon 05:38:00 AM 63.1812 10.0230 105° East  Level FlightAware Approximate
Mon 05:39:00 AM 63.1480 10.2974 105° East  Level FlightAware Approximate
Mon 05:40:00 AM 63.1143 10.5711 105° East  Level FlightAware Approximate
Mon 05:41:00 AM 63.0801 10.8442 105° East  Level FlightAware Approximate
Mon 05:42:00 AM 63.0454 11.1167 106° East  Level FlightAware Approximate
Mon 05:43:00 AM 63.0101 11.3885 106° East  Level FlightAware Approximate
Mon 05:43:21 AM 61.4240 20.7430 106° East 507 583 39,000  Level FlightAware ADS-B
Mon 05:43:52 AM 61.3858 20.8749 121° Southeast 505 581 39,000  Level FlightAware ADS-B
Mon 05:44:28 AM 61.3418 21.0259 121° Southeast 506 582 39,000  Level FlightAware ADS-B
Mon 05:45:03 AM 61.3001 21.1686 121° Southeast 507 583 39,000  Level FlightAware ADS-B
Mon 05:45:52 AM 61.2398 21.3728 121° Southeast 507 583 39,000  Level FlightAware ADS-B
Mon 05:46:32 AM 61.1901 21.5397 122° Southeast 505 581 39,000  Level FlightAware ADS-B
Mon 05:47:10 AM 61.1429 21.6970 122° Southeast 505 581 39,000  Level FlightAware ADS-B
Mon 05:47:42 AM 61.1032 21.8290 122° Southeast 506 582 39,000  Level FlightAware ADS-B
Mon 05:48:22 AM 61.0538 21.9918 122° Southeast 504 580 39,000  Level FlightAware ADS-B
Mon 05:48:56 AM 61.0107 22.1325 122° Southeast 507 583 39,000  Level FlightAware ADS-B
Mon 05:49:32 AM 60.9667 22.2754 122° Southeast 507 583 39,000  Level FlightAware ADS-B
Mon 05:52:00 AM 60.8314 22.8632 115° Southeast  Level FlightAware Approximate
Mon 05:53:00 AM 60.7758 23.1001 116° Southeast  Level FlightAware Approximate
Mon 05:54:00 AM 60.7198 23.3361 116° Southeast  Level FlightAware Approximate
Mon 05:55:00 AM 60.6634 23.5714 116° Southeast  Level FlightAware Approximate
Mon 05:56:00 AM 60.6066 23.8058 116° Southeast  Level FlightAware Approximate
Mon 05:57:00 AM 60.5493 24.0394 116° Southeast  Level FlightAware Approximate
Mon 05:58:00 AM 60.4917 24.2722 117° Southeast  Level FlightAware Approximate
Mon 05:59:00 AM 60.4336 24.5041 117° Southeast  Level FlightAware Approximate
Mon 06:00:00 AM 60.3752 24.7352 117° Southeast  Level FlightAware Approximate
Mon 06:01:00 AM 60.3163 24.9655 117° Southeast  Level FlightAware Approximate
Mon 06:02:00 AM 60.2571 25.1949 117° Southeast  Level FlightAware Approximate
Mon 06:03:00 AM 60.1974 25.4235 118° Southeast  Level FlightAware Approximate
Mon 06:04:00 AM 60.1374 25.6513 118° Southeast  Level FlightAware Approximate
Mon 06:05:00 AM 60.0770 25.8782 118° Southeast  Level FlightAware Approximate
Mon 06:06:00 AM 60.0162 26.1043 118° Southeast  Level FlightAware Approximate
Mon 06:07:00 AM 59.9550 26.3296 118° Southeast  Level FlightAware Approximate
Mon 06:08:00 AM 59.8934 26.5540 119° Southeast  Level FlightAware Approximate
Mon 06:09:00 AM 59.8315 26.7777 119° Southeast  Level FlightAware Approximate
Mon 06:10:00 AM 59.7691 27.0004 119° Southeast  Level FlightAware Approximate
Mon 06:11:00 AM 59.7064 27.2224 119° Southeast  Level FlightAware Approximate
Mon 06:12:00 AM 59.6434 27.4435 119° Southeast  Level FlightAware Approximate
Mon 06:13:00 AM 59.5799 27.6638 120° Southeast  Level FlightAware Approximate
Mon 06:14:00 AM 59.5161 27.8832 120° Southeast  Level FlightAware Approximate
Mon 06:15:00 AM 59.4519 28.1018 120° Southeast  Level FlightAware Approximate
Mon 06:16:00 AM 59.3873 28.3196 120° Southeast  Level FlightAware Approximate
Mon 06:17:00 AM 59.3224 28.5366 120° Southeast  Level FlightAware Approximate
Mon 06:18:00 AM 59.2572 28.7527 121° Southeast  Level FlightAware Approximate
Mon 06:19:00 AM 59.1915 28.9680 121° Southeast  Level FlightAware Approximate
Mon 06:20:00 AM 59.1256 29.1825 121° Southeast  Level FlightAware Approximate
Mon 06:21:00 AM 59.0592 29.3961 121° Southeast  Level FlightAware Approximate
Mon 06:22:00 AM 58.9925 29.6089 121° Southeast  Level FlightAware Approximate
Mon 06:23:00 AM 58.9255 29.8209 121° Southeast  Level FlightAware Approximate
Mon 06:24:00 AM 58.8581 30.0321 122° Southeast  Level FlightAware Approximate
Mon 06:25:00 AM 58.7904 30.2425 122° Southeast  Level FlightAware Approximate
Mon 06:26:00 AM 58.7224 30.4520 122° Southeast  Level FlightAware Approximate
Mon 06:27:00 AM 58.6540 30.6607 122° Southeast  Level FlightAware Approximate
Mon 06:28:00 AM 58.5852 30.8686 122° Southeast  Level FlightAware Approximate
Mon 06:29:00 AM 58.5162 31.0757 123° Southeast  Level FlightAware Approximate
Mon 06:30:00 AM 58.4468 31.2819 123° Southeast  Level FlightAware Approximate
Mon 06:31:00 AM 58.3770 31.4874 123° Southeast  Level FlightAware Approximate
Mon 06:32:00 AM 58.3070 31.6920 123° Southeast  Level FlightAware Approximate
Mon 06:33:00 AM 58.2366 31.8958 123° Southeast  Level FlightAware Approximate
Mon 06:34:00 AM 58.1659 32.0988 123° Southeast  Level FlightAware Approximate
Mon 06:35:00 AM 58.0948 32.3010 124° Southeast  Level FlightAware Approximate
Mon 06:36:00 AM 58.0235 32.5024 124° Southeast  Level FlightAware Approximate
Mon 06:37:00 AM 57.9518 32.7030 124° Southeast  Level FlightAware Approximate
Mon 06:38:00 AM 57.8798 32.9028 124° Southeast  Level FlightAware Approximate
Mon 06:39:00 AM 57.8075 33.1018 124° Southeast  Level FlightAware Approximate
Mon 06:40:00 AM 57.7350 33.3000 124° Southeast  Level FlightAware Approximate
Mon 06:41:00 AM 57.6620 33.4974 125° Southeast  Level FlightAware Approximate
Mon 06:42:00 AM 57.5888 33.6940 125° Southeast  Level FlightAware Approximate
Mon 06:43:00 AM 57.5153 33.8898 125° Southeast  Level FlightAware Approximate
Mon 06:44:00 AM 57.4415 34.0848 125° Southeast  Level FlightAware Approximate
Mon 06:45:00 AM 57.3665 34.2795 126° Southeast  Level FlightAware Approximate
Mon 06:46:00 AM 57.2914 34.4721 126° Southeast  Level FlightAware Approximate
Mon 06:47:00 AM 57.2166 34.6647 126° Southeast  Level FlightAware Approximate
Mon 06:48:00 AM 57.1400 34.8543 127° Southeast  Level FlightAware Approximate
Mon 06:49:00 AM 57.0676 35.0371 128° Southeast  Level FlightAware Approximate
Mon 06:50:00 AM 56.9883 35.2223 128° Southeast  Level FlightAware Approximate
Mon 06:51:00 AM 56.9104 35.4090 125° Southeast  Level FlightAware Approximate
Mon 06:52:00 AM 56.8357 35.5997 126° Southeast  Level FlightAware Approximate
Mon 06:53:00 AM 56.7607 35.7897 126° Southeast  Level FlightAware Approximate
Mon 06:54:00 AM 56.6818 35.9738 128° Southeast  Level FlightAware Approximate
Mon 06:55:00 AM 56.6020 36.1563 128° Southeast  Level FlightAware Approximate
Mon 06:56:00 AM 56.5219 36.3381 129° Southeast  Level FlightAware Approximate
Mon 06:57:00 AM 56.4417 36.5193 128° Southeast  Level FlightAware Approximate
Mon 06:58:00 AM 56.3632 36.7026 128° Southeast  Level FlightAware Approximate
Mon 06:59:00 AM 56.2834 36.8836 129° Southeast  Level FlightAware Approximate
Mon 07:00:00 AM 56.2041 37.0648 126° Southeast  Level FlightAware Approximate
Mon 07:01:00 AM 56.1293 37.2519 126° Southeast  Level FlightAware Approximate
Mon 07:02:00 AM 56.0518 37.4347 127° Southeast  Level FlightAware Approximate
Mon 07:03:00 AM 55.9726 37.4146 127° Southeast  Level Estimated
Mon 07:04:00 AM 55.9726 37.4146 127° Southeast  Level Estimated
Mon 07:05:00 AM 55.9726 37.4146 127° Southeast  Level Estimated
Mon 07:06:00 AM 55.9726 37.4146 127° Southeast  Level Estimated
Mon 07:07:00 AM 55.9726 37.4146 127° Southeast  Level Estimated
Mon 07:08:00 AM 55.9726 37.4146 127° Southeast  Level Estimated
Mon 07:09:00 AM 55.9726 37.4146 127° Southeast  Level Estimated
Mon 07:10:00 AM 55.9726 37.4146 127° Southeast  Level Estimated
Mon 07:11:00 AM 55.9726 37.4146 127° Southeast  Level Estimated
Mon 07:12:00 AM 55.9726 37.4146 127° Southeast  Level Estimated
Mon 07:13:00 AM 55.9726 37.4146 127° Southeast  Level Estimated
Mon 07:14:00 AM 55.9726 37.4146 127° Southeast  Level Estimated
Mon 07:15:00 AM 55.9726 37.4146 127° Southeast  Level Estimated
Mon 07:16:00 AM 55.9726 37.4146 127° Southeast  Level Estimated
Mon 07:17:00 AM 55.9726 37.4146 127° Southeast  Level Estimated
Mon 07:18:00 AM 55.9726 37.4146 127° Southeast  Level Estimated
Mon 07:19:00 AM 55.9726 37.4146 127° Southeast  Level Estimated
Mon 07:20:00 AM 55.9726 37.4146 127° Southeast  Level Estimated
Mon 07:21:00 AM 55.9726 37.4146 127° Southeast  Level Estimated
Mon 07:22:00 AM 55.9726 37.4146 127° Southeast  Level Estimated
Mon 07:23:00 AM 55.9726 37.4146 127° Southeast  Level Estimated
Mon 07:24:00 AM 55.9726 37.4146 127° Southeast  Level Estimated
Mon 07:25:00 AM 55.9726 37.4146 127° Southeast  Level Estimated
Mon 07:26:00 AM 55.9726 37.4146 127° Southeast  Level Estimated
Mon 07:27:00 AM 55.9726 37.4146 127° Southeast  Level Estimated
Mon 07:28:00 AM 55.9726 37.4146 127° Southeast  Level Estimated
Mon 07:29:00 AM 55.9726 37.4146 127° Southeast  Level Estimated
Mon 07:30:00 AM 55.9726 37.4146 127° Southeast  Level Estimated
Mon 07:31:00 AM 55.9726 37.4146 127° Southeast  Level Estimated
Mon 07:32:00 AM 55.9726 37.4146 127° Southeast  Level Estimated
Mon 07:33:00 AM 55.9726 37.4146 127° Southeast  Level Estimated
Mon 07:34:00 AM 55.9726 37.4146 127° Southeast  Level Estimated
Mon 07:35:00 AM 55.9726 37.4146 127° Southeast  Level Estimated
Mon 07:36:00 AM 55.9726 37.4146 127° Southeast  Level Estimated
Mon 07:37:00 AM 55.9726 37.4146 127° Southeast  Level Estimated
Mon 07:38:00 AM 55.9726 37.4146 127° Southeast  Level Estimated
Mon 07:39:00 AM 55.9726 37.4146 127° Southeast  Level Estimated
Mon 07:40:00 AM 55.9726 37.4146 127° Southeast  Level Estimated
Mon 07:41:00 AM 55.9726 37.4146 127° Southeast  Level Estimated
Mon 07:42:00 AM 55.9726 37.4146 127° Southeast  Level Estimated
Mon 07:43:00 AM 55.9726 37.4146 127° Southeast  Level Estimated
Mon 07:44:00 AM 55.9726 37.4146 127° Southeast  Level Estimated
Mon 07:45:00 AM 55.9726 37.4146 127° Southeast  Level Estimated
Mon 07:46:00 AM 55.9726 37.4146 127° Southeast  Level Estimated
Mon 07:47:00 AM 55.9726 37.4146 127° Southeast  Level Estimated
Mon 07:48:00 AM 55.9726 37.4146 127° Southeast  Level Estimated
Mon 07:49:00 AM 55.9726 37.4146 127° Southeast  Level Estimated
Mon 07:50:00 AM 55.9726 37.4146 127° Southeast  Level Estimated
Mon 07:51:00 AM 55.9726 37.4146 127° Southeast  Level Estimated
Mon 07:52:00 AM 55.9726 37.4146 127° Southeast  Level Estimated
Mon 07:53:00 AM 55.9726 37.4146 127° Southeast  Level Estimated
Mon 07:54:00 AM 55.9726 37.4146 127° Southeast  Level Estimated
Mon 07:55:00 AM 55.9726 37.4146 127° Southeast  Level Estimated
Mon 07:56:00 AM 55.9726 37.4146 127° Southeast  Level Estimated
Mon 07:57:00 AM 55.9726 37.4146 127° Southeast  Level Estimated
Mon 07:58:00 AM 55.9726 37.4146 127° Southeast  Level Estimated
Mon 07:59:00 AM 55.9726 37.4146 127° Southeast  Level Estimated
Mon 08:00:00 AM 55.9726 37.4146 127° Southeast  Level Estimated
Mon 08:01:00 AM 55.9726 37.4146 127° Southeast  Level Estimated
Mon 08:02:00 AM 55.9726 37.4146 127° Southeast  Level Estimated
Mon 08:03:00 AM 55.9726 37.4146 127° Southeast  Level Estimated
Mon 08:04:00 AM 55.9726 37.4146 127° Southeast  Level Estimated
Mon 08:05:00 AM 55.9726 37.4146 127° Southeast  Level Estimated

Login

Don't have an account? Register now (free) for customized features, flight alerts, and more!